Time;durP1;ratioP1;P1;durP2;ratioP2;P2;SDS_P1;SDS_P2;PMS_P1;PMS_P2;Temp;Humidity;BMP_temperature;BMP_pressure;BME280_temperature;BME280_humidity;BME280_pressure;Samples;Min_cycle;Max_cycle;Signal;HPM_P1;HPM_P2
2023/09/12 00:00:41;;;;;;;0.70;0.63;;;;;;;14.30;77.20;94764.97;5054175;28;20215;-77
2023/09/12 00:03:08;;;;;;;0.65;0.65;;;;;;;14.20;77.62;94771.72;5058347;28;20215;-77
2023/09/12 00:05:35;;;;;;;0.95;0.95;;;;;;;14.14;78.04;94767.66;5052151;28;20228;-77
2023/09/12 00:08:04;;;;;;;0.60;0.60;;;;;;;14.10;78.51;94772.19;5052478;28;20231;-77
2023/09/12 00:10:30;;;;;;;0.32;0.32;;;;;;;14.04;78.58;94768.16;5052371;28;20281;-77
2023/09/12 00:13:00;;;;;;;0.35;0.35;;;;;;;14.01;78.00;94773.50;5052177;28;20243;-77
2023/09/12 00:15:27;;;;;;;0.20;0.20;;;;;;;14.07;78.75;94778.38;5051893;28;20573;-77
2023/09/12 00:17:54;;;;;;;0.10;0.10;;;;;;;13.99;78.99;94771.09;5052161;28;20577;-77
2023/09/12 00:20:20;;;;;;;0.20;0.20;;;;;;;13.88;79.46;94775.47;5051765;28;20216;-77
2023/09/12 00:22:47;;;;;;;0.57;0.57;;;;;;;13.76;81.15;94783.66;5051793;28;20211;-77
2023/09/12 00:25:16;;;;;;;0.10;0.10;;;;;;;13.71;80.56;94776.50;5051697;28;20681;-76
2023/09/12 00:27:42;;;;;;;0.30;0.30;;;;;;;13.70;80.96;94785.03;5051870;28;20211;-77
2023/09/12 00:30:10;;;;;;;0.30;0.30;;;;;;;13.74;80.86;94781.28;5052149;28;20656;-77
2023/09/12 00:32:37;;;;;;;0.20;0.20;;;;;;;13.75;80.54;94782.88;5052060;28;20288;-77
2023/09/12 00:35:04;;;;;;;0.20;0.20;;;;;;;13.73;80.74;94787.06;5051890;28;20207;-77
2023/09/12 00:37:31;;;;;;;0.20;0.20;;;;;;;13.81;80.06;94780.69;5051768;28;20231;-77
2023/09/12 00:39:57;;;;;;;0.20;0.20;;;;;;;13.79;80.72;94788.44;5051648;28;20216;-77
2023/09/12 00:42:27;;;;;;;0.28;0.28;;;;;;;13.70;80.87;94785.03;5051537;28;20758;-77
2023/09/12 00:44:54;;;;;;;0.85;0.85;;;;;;;13.66;81.23;94781.41;5051874;28;20207;-77
2023/09/12 00:47:22;;;;;;;0.20;0.20;;;;;;;13.64;81.07;94780.97;5051220;28;20199;-77
2023/09/12 00:49:51;;;;;;;0.20;0.20;;;;;;;13.65;80.92;94788.00;5051691;28;20641;-77
2023/09/12 00:52:20;;;;;;;0.20;0.20;;;;;;;13.56;81.18;94790.03;5050926;28;20298;-77
2023/09/12 00:54:47;;;;;;;0.20;0.20;;;;;;;13.36;81.67;94792.56;5051581;28;20208;-76
2023/09/12 00:57:14;;;;;;;1.52;1.00;;;;;;;13.43;82.26;94783.81;5051039;28;20254;-76
2023/09/12 00:59:43;;;;;;;0.90;0.70;;;;;;;13.35;82.37;94790.97;5051407;28;20211;-77
2023/09/12 01:02:10;;;;;;;1.48;1.10;;;;;;;13.31;82.42;94795.50;5058983;28;20215;-77
2023/09/12 01:04:37;;;;;;;1.13;1.10;;;;;;;13.32;82.48;94791.66;5051268;28;20571;-76
2023/09/12 01:07:05;;;;;;;0.80;0.80;;;;;;;13.29;82.25;94788.81;5051479;28;20579;-77
2023/09/12 01:09:32;;;;;;;0.98;0.80;;;;;;;13.29;81.95;94797.75;5051226;28;20291;-77
2023/09/12 01:12:00;;;;;;;0.47;0.47;;;;;;;13.30;82.11;94798.56;5051097;28;20244;-77
2023/09/12 01:14:27;;;;;;;1.08;0.70;;;;;;;13.28;81.93;94804.34;5050687;28;20235;-76
2023/09/12 01:16:55;;;;;;;0.80;0.73;;;;;;;13.27;81.68;94800.03;5050812;28;20231;-77
2023/09/12 01:19:22;;;;;;;0.20;0.20;;;;;;;13.30;81.77;94799.34;5050676;28;20290;-76
2023/09/12 01:22:25;;;;;;;0.30;0.30;;;;;;;13.35;81.57;94801.06;5050842;28;20208;-77
2023/09/12 01:25:24;;;;;;;0.20;0.20;;;;;;;13.38;81.28;94801.19;5035994;28;20261;-76
2023/09/12 01:27:53;;;;;;;0.20;0.20;;;;;;;13.28;82.01;94806.25;5050813;28;20207;-77
2023/09/12 01:30:23;;;;;;;0.73;0.73;;;;;;;13.22;82.32;94805.72;5050472;28;20203;-77
2023/09/12 01:32:50;;;;;;;0.10;0.10;;;;;;;13.20;82.77;94818.84;5050711;28;20207;-77
2023/09/12 01:35:17;;;;;;;0.95;0.77;;;;;;;13.11;82.67;94807.25;5050910;28;20626;-77
2023/09/12 01:37:44;;;;;;;1.27;0.85;;;;;;;13.10;82.30;94813.84;5050781;28;20234;-77
2023/09/12 01:40:12;;;;;;;0.60;0.60;;;;;;;13.17;82.23;94808.63;5050338;28;20253;-77
2023/09/12 01:42:43;;;;;;;0.20;0.20;;;;;;;13.09;82.92;94815.75;5050249;28;20269;-77
2023/09/12 01:45:16;;;;;;;0.20;0.20;;;;;;;13.15;82.33;94816.34;5050452;28;20203;-77
2023/09/12 01:47:43;;;;;;;0.20;0.20;;;;;;;13.16;82.84;94815.22;5050636;28;20579;-77
2023/09/12 01:50:13;;;;;;;0.52;0.52;;;;;;;13.11;82.91;94815.41;5050415;28;20230;-77
2023/09/12 01:52:40;;;;;;;0.20;0.20;;;;;;;13.08;82.67;94807.94;5050840;28;20575;-77
2023/09/12 01:55:09;;;;;;;0.10;0.10;;;;;;;13.10;82.75;94814.63;5050662;28;20633;-77
2023/09/12 01:57:36;;;;;;;0.20;0.20;;;;;;;13.11;82.50;94824.38;5050187;28;20377;-76
2023/09/12 02:00:03;;;;;;;0.20;0.20;;;;;;;13.09;82.61;94823.91;5050182;28;20641;-77
2023/09/12 02:02:32;;;;;;;0.20;0.20;;;;;;;13.03;82.99;94825.25;5058086;28;20204;-77
2023/09/12 02:05:08;;;;;;;0.10;0.10;;;;;;;12.97;83.19;94817.66;5050599;28;20601;-77
2023/09/12 02:07:39;;;;;;;0.85;0.73;;;;;;;12.95;83.70;94825.38;5050272;28;20207;-77
2023/09/12 02:10:07;;;;;;;0.20;0.20;;;;;;;12.96;83.81;94824.22;5050380;28;20578;-77
2023/09/12 02:12:33;;;;;;;0.30;0.30;;;;;;;12.97;83.80;94823.09;5049733;28;20289;-77
2023/09/12 02:15:00;;;;;;;0.50;0.50;;;;;;;12.91;84.25;94825.25;5050142;28;20223;-77
2023/09/12 02:17:27;;;;;;;1.48;1.00;;;;;;;12.96;83.78;94821.53;5049683;28;20223;-77
2023/09/12 02:19:56;;;;;;;1.67;0.70;;;;;;;12.91;83.70;94808.91;5050168;28;20571;-77
2023/09/12 02:22:23;;;;;;;0.20;0.20;;;;;;;12.87;84.33;94821.59;5049739;28;20204;-77
2023/09/12 02:24:50;;;;;;;0.20;0.20;;;;;;;12.84;84.63;94818.78;5050286;28;20238;-77
2023/09/12 02:27:17;;;;;;;0.20;0.20;;;;;;;12.87;84.74;94824.31;5049820;28;20215;-76
2023/09/12 02:29:44;;;;;;;1.67;0.70;;;;;;;12.94;83.98;94818.34;5050236;28;20279;-77
2023/09/12 02:32:11;;;;;;;1.02;0.95;;;;;;;12.87;84.08;94824.31;5049699;28;20273;-77
2023/09/12 02:34:38;;;;;;;0.20;0.20;;;;;;;12.86;83.44;94821.94;5049578;28;20223;-77
2023/09/12 02:37:06;;;;;;;0.10;0.10;;;;;;;12.90;83.19;94820.13;5049954;28;20215;-77
2023/09/12 02:39:33;;;;;;;0.20;0.20;;;;;;;12.88;83.07;94825.09;5049930;28;20269;-77
2023/09/12 02:41:59;;;;;;;0.47;0.35;;;;;;;12.87;82.91;94818.09;5050134;28;20208;-77
2023/09/12 02:44:26;;;;;;;0.10;0.10;;;;;;;12.88;83.25;94822.38;5050047;28;20712;-77
2023/09/12 02:46:53;;;;;;;0.20;0.20;;;;;;;12.85;84.16;94825.81;5049686;28;20216;-77
2023/09/12 02:49:20;;;;;;;0.15;0.15;;;;;;;12.75;84.26;94827.81;5049949;28;20211;-76
2023/09/12 02:51:46;;;;;;;0.20;0.20;;;;;;;12.70;84.54;94830.75;5050032;28;20631;-77
2023/09/12 02:54:15;;;;;;;0.20;0.20;;;;;;;12.78;84.39;94826.34;5049994;28;20212;-76
2023/09/12 02:56:41;;;;;;;0.57;0.52;;;;;;;12.75;84.53;94827.81;5053139;28;20253;-77
2023/09/12 02:59:08;;;;;;;0.10;0.10;;;;;;;12.77;84.51;94830.97;5053594;28;20231;-77
2023/09/12 03:01:35;;;;;;;0.20;0.20;;;;;;;12.67;85.09;94823.25;5060822;28;20583;-77
2023/09/12 03:04:02;;;;;;;0.20;0.20;;;;;;;12.72;85.56;94823.03;5053399;28;20220;-76
2023/09/12 03:06:29;;;;;;;0.10;0.10;;;;;;;12.63;85.30;94827.78;5053028;28;20203;-77
2023/09/12 03:08:56;;;;;;;0.75;0.60;;;;;;;12.58;85.53;94827.97;5053497;28;20733;-77
2023/09/12 03:11:27;;;;;;;0.40;0.40;;;;;;;12.62;85.52;94826.19;5053014;28;20211;-77
2023/09/12 03:13:53;;;;;;;1.17;0.75;;;;;;;12.54;85.99;94820.84;5053353;28;20700;-77
2023/09/12 03:16:20;;;;;;;0.82;0.82;;;;;;;12.48;85.82;94822.97;5052758;28;20612;-77
2023/09/12 03:18:47;;;;;;;0.98;0.77;;;;;;;12.48;85.71;94822.16;5053460;28;20238;-77
2023/09/12 03:21:14;;;;;;;0.20;0.20;;;;;;;12.51;85.78;94833.16;5052868;28;20210;-77
2023/09/12 03:23:41;;;;;;;0.20;0.20;;;;;;;12.51;85.18;94822.31;5053247;28;20215;-76
2023/09/12 03:26:07;;;;;;;0.10;0.10;;;;;;;12.60;84.23;94831.16;5053154;28;20208;-77
2023/09/12 03:28:36;;;;;;;0.50;0.50;;;;;;;12.59;84.57;94835.00;5052911;28;20771;-76
2023/09/12 03:31:08;;;;;;;0.20;0.20;;;;;;;12.55;84.88;94836.81;5053113;28;20212;-76
2023/09/12 03:33:34;;;;;;;0.10;0.10;;;;;;;12.53;84.84;94830.13;5052827;28;20266;-76
2023/09/12 03:36:01;;;;;;;0.10;0.10;;;;;;;12.46;84.85;94833.38;5052690;28;20204;-76
2023/09/12 03:38:28;;;;;;;0.20;0.20;;;;;;;12.46;84.83;94834.16;5052980;28;20227;-76
2023/09/12 03:40:55;;;;;;;0.10;0.10;;;;;;;12.36;85.15;94836.50;5053031;28;20203;-76
2023/09/12 03:43:22;;;;;;;0.10;0.10;;;;;;;12.29;85.72;94839.78;5052637;28;20212;-76
2023/09/12 03:45:50;;;;;;;1.45;0.95;;;;;;;12.19;85.82;94842.88;5052488;28;20693;-76
2023/09/12 03:48:17;;;;;;;0.95;0.90;;;;;;;12.13;86.03;94833.34;5052721;28;20208;-76
2023/09/12 03:50:44;;;;;;;0.52;0.50;;;;;;;12.19;85.79;94836.66;5052383;28;20208;-76
2023/09/12 03:53:10;;;;;;;0.77;0.75;;;;;;;12.24;85.77;94841.88;5052586;28;20211;-76
2023/09/12 03:55:37;;;;;;;1.80;1.30;;;;;;;12.22;85.67;94841.41;5052341;28;20284;-76
2023/09/12 03:58:05;;;;;;;0.20;0.20;;;;;;;12.28;85.80;94840.09;5052496;28;20288;-76
2023/09/12 04:00:31;;;;;;;0.20;0.20;;;;;;;12.27;86.31;94833.09;5052413;28;20707;-76
2023/09/12 04:03:00;;;;;;;0.20;0.20;;;;;;;12.33;86.34;94846.09;5060159;28;20627;-77
2023/09/12 04:05:27;;;;;;;0.30;0.30;;;;;;;12.41;86.30;94844.47;5051971;28;20544;-76
2023/09/12 04:07:54;;;;;;;0.30;0.30;;;;;;;12.48;85.92;94842.00;5052475;28;20215;-78
2023/09/12 04:10:21;;;;;;;0.40;0.40;;;;;;;12.55;85.81;94844.97;5052583;28;20211;-77
2023/09/12 04:12:48;;;;;;;0.20;0.20;;;;;;;12.59;85.14;94840.44;5051949;28;20309;-77
2023/09/12 04:15:15;;;;;;;0.30;0.30;;;;;;;12.77;85.02;94846.50;5052148;28;20207;-77
2023/09/12 04:17:42;;;;;;;0.20;0.20;;;;;;;13.23;84.58;94839.94;5051927;28;20596;-77
2023/09/12 04:20:13;;;;;;;0.20;0.20;;;;;;;14.07;82.40;94840.22;5052507;28;20599;-77
2023/09/12 04:22:40;;;;;;;0.10;0.10;;;;;;;14.92;79.60;94834.44;5051172;28;20619;-77
2023/09/12 04:25:07;;;;;;;0.25;0.25;;;;;;;15.83;75.76;94829.72;5051588;28;20258;-77
2023/09/12 04:27:35;;;;;;;0.52;0.52;;;;;;;16.61;73.23;94820.44;5051434;28;20203;-78
2023/09/12 04:30:02;;;;;;;0.30;0.30;;;;;;;17.17;70.13;94830.09;5056565;28;20253;-78
2023/09/12 04:32:29;;;;;;;0.10;0.10;;;;;;;17.41;68.73;94829.72;5051758;28;20570;-78
2023/09/12 04:34:56;;;;;;;0.30;0.30;;;;;;;18.58;64.90;94825.19;5051837;28;20196;-78
2023/09/12 04:37:24;;;;;;;0.10;0.10;;;;;;;18.91;63.12;94822.47;5051182;28;20214;-75
2023/09/12 04:39:51;;;;;;;0.20;0.20;;;;;;;19.67;59.90;94825.59;5051897;28;20227;-77
2023/09/12 04:42:18;;;;;;;0.20;0.20;;;;;;;19.83;58.75;94823.34;5057488;28;20949;-77
2023/09/12 04:44:45;;;;;;;0.28;0.28;;;;;;;20.65;57.28;94812.03;5051797;28;20207;-78
2023/09/12 04:47:12;;;;;;;0.52;0.52;;;;;;;20.98;55.13;94814.53;5048219;28;20666;-75
2023/09/12 04:49:39;;;;;;;0.80;0.77;;;;;;;20.85;55.70;94827.06;5035666;28;20218;-75
2023/09/12 04:52:07;;;;;;;0.30;0.30;;;;;;;21.85;52.66;94817.81;5051226;28;20257;-75
2023/09/12 04:54:35;;;;;;;0.15;0.15;;;;;;;22.45;51.13;94811.41;5049006;28;20600;-75
2023/09/12 04:57:02;;;;;;;0.93;0.60;;;;;;;22.32;50.04;94813.03;5051748;28;20306;-75
2023/09/12 04:59:32;;;;;;;0.93;0.82;;;;;;;22.63;49.40;94817.69;5055072;28;20642;-75
2023/09/12 05:01:58;;;;;;;1.17;0.85;;;;;;;22.62;49.57;94816.09;5053252;28;20210;-75
2023/09/12 05:04:25;;;;;;;0.98;0.80;;;;;;;22.67;49.35;94818.47;5050987;28;20261;-75
2023/09/12 05:06:53;;;;;;;0.90;0.88;;;;;;;22.66;49.60;94819.66;5050885;28;20644;-76
2023/09/12 05:09:20;;;;;;;1.80;1.35;;;;;;;23.38;47.84;94820.06;5051131;28;20261;-76
2023/09/12 05:11:48;;;;;;;0.57;0.57;;;;;;;23.53;47.01;94818.03;5045488;28;20199;-76
2023/09/12 05:14:15;;;;;;;0.63;0.63;;;;;;;23.97;45.84;94826.38;5050868;28;20273;-78
2023/09/12 05:16:42;;;;;;;1.88;1.10;;;;;;;23.81;46.21;94823.34;5055603;28;20632;-78
2023/09/12 05:19:08;;;;;;;0.93;0.70;;;;;;;23.65;45.56;94823.09;5049891;28;20229;-76
2023/09/12 05:21:35;;;;;;;1.38;1.00;;;;;;;23.63;45.93;94825.50;5046967;28;20204;-75
2023/09/12 05:24:01;;;;;;;1.10;0.80;;;;;;;23.93;45.04;94825.63;5050637;28;20208;-76
2023/09/12 05:26:28;;;;;;;0.60;0.60;;;;;;;24.30;43.41;94819.41;5050026;28;20211;-76
2023/09/12 05:28:56;;;;;;;0.55;0.55;;;;;;;24.42;43.53;94823.63;5048497;28;20211;-78
2023/09/12 05:31:23;;;;;;;1.48;0.93;;;;;;;24.42;44.01;94829.97;5044342;28;20204;-78
2023/09/12 05:33:49;;;;;;;2.35;0.80;;;;;;;24.18;43.82;94825.44;5050786;28;20203;-77
2023/09/12 05:36:16;;;;;;;1.15;1.00;;;;;;;24.71;42.99;94830.44;5057071;28;20290;-77
2023/09/12 05:38:43;;;;;;;1.00;0.90;;;;;;;25.34;41.33;94821.72;5050186;28;20223;-76
2023/09/12 05:41:10;;;;;;;1.50;0.68;;;;;;;25.00;42.96;94821.81;5050312;28;20211;-77
2023/09/12 05:43:37;;;;;;;1.48;0.95;;;;;;;25.82;40.77;94827.78;5050452;28;20675;-76
2023/09/12 05:46:05;;;;;;;1.70;1.13;;;;;;;26.13;40.33;94820.13;5050364;28;20257;-79
2023/09/12 05:48:32;;;;;;;1.95;1.27;;;;;;;26.19;39.55;94820.44;5050264;28;20204;-77
2023/09/12 05:50:59;;;;;;;1.00;0.90;;;;;;;27.45;37.67;94818.38;5040735;28;20262;-76
2023/09/12 05:53:26;;;;;;;1.17;1.00;;;;;;;27.02;38.57;94817.72;5048198;28;20200;-76
2023/09/12 05:55:52;;;;;;;1.00;1.00;;;;;;;27.33;38.34;94824.63;5048417;28;20203;-77
2023/09/12 05:58:19;;;;;;;1.88;1.45;;;;;;;27.35;37.71;94816.59;5044085;28;20224;-78
2023/09/12 06:00:46;;;;;;;1.48;1.05;;;;;;;27.71;37.02;94822.19;5041655;28;20269;-76
2023/09/12 06:03:16;;;;;;;1.05;0.98;;;;;;;28.04;36.29;94822.19;5046938;28;20199;-76
2023/09/12 06:05:43;;;;;;;1.70;1.00;;;;;;;28.41;36.00;94826.47;5042242;28;20210;-75
2023/09/12 06:08:10;;;;;;;1.20;1.08;;;;;;;27.20;37.51;94818.13;5045157;28;20207;-77
2023/09/12 06:10:36;;;;;;;0.90;0.80;;;;;;;28.21;36.50;94821.78;5047644;28;20226;-77
2023/09/12 06:13:03;;;;;;;2.05;1.20;;;;;;;27.46;36.65;94817.16;5040236;28;20247;-78
2023/09/12 06:15:30;;;;;;;0.70;0.70;;;;;;;28.03;35.76;94821.41;5047926;28;20564;-77
2023/09/12 06:17:57;;;;;;;1.38;1.15;;;;;;;28.47;35.78;94816.34;5050014;28;20568;-77
2023/09/12 06:20:25;;;;;;;2.47;1.10;;;;;;;28.85;34.86;94825.66;5047996;28;20199;-76
2023/09/12 06:22:52;;;;;;;1.25;1.15;;;;;;;28.38;35.95;94830.13;5050046;28;20637;-79
2023/09/12 06:25:19;;;;;;;1.25;0.85;;;;;;;28.69;35.04;94833.28;5054308;28;20235;-76
2023/09/12 06:27:46;;;;;;;1.05;0.95;;;;;;;28.29;35.22;94833.53;5050986;28;20233;-76
2023/09/12 06:30:14;;;;;;;2.03;1.00;;;;;;;29.18;34.39;94831.13;5053800;28;20798;-75
2023/09/12 06:32:41;;;;;;;1.77;1.33;;;;;;;29.05;34.02;94836.69;5054685;28;20219;-75
2023/09/12 06:35:10;;;;;;;1.77;1.10;;;;;;;28.81;34.58;94846.53;5046731;28;20318;-76
2023/09/12 06:37:39;;;;;;;1.80;1.00;;;;;;;29.24;33.47;94846.13;5045377;28;20207;-76
2023/09/12 06:40:06;;;;;;;1.50;1.02;;;;;;;29.12;33.07;94844.84;5052002;28;20235;-76
2023/09/12 06:42:33;;;;;;;0.65;0.65;;;;;;;29.47;32.95;94843.06;5052970;28;20215;-78
2023/09/12 06:45:00;;;;;;;2.47;1.55;;;;;;;28.99;33.51;94839.22;5055588;28;20591;-78
2023/09/12 06:47:27;;;;;;;1.20;0.95;;;;;;;28.37;33.98;94850.84;5053459;28;20233;-76
2023/09/12 06:50:22;;;;;;;0.68;0.68;;;;;;;28.92;33.67;94847.81;5040579;28;20205;-75
2023/09/12 06:52:52;;;;;;;1.05;0.80;;;;;;;28.28;34.13;94849.47;5039321;28;20204;-76
2023/09/12 06:55:19;;;;;;;0.88;0.77;;;;;;;28.59;34.12;94846.28;5052193;28;20227;-76
2023/09/12 06:57:46;;;;;;;1.38;0.90;;;;;;;27.17;36.05;94853.16;5052761;28;20274;-75
2023/09/12 07:00:17;;;;;;;1.48;1.10;;;;;;;27.11;36.91;94856.88;5052047;28;20235;-76
2023/09/12 07:02:44;;;;;;;1.45;1.30;;;;;;;26.71;37.16;94851.25;5038618;28;20207;-77
2023/09/12 07:05:13;;;;;;;2.15;1.08;;;;;;;27.50;35.94;94856.03;5050460;28;20208;-77
2023/09/12 07:07:40;;;;;;;1.10;1.00;;;;;;;27.95;35.05;94840.28;5043388;28;20204;-76
2023/09/12 07:10:09;;;;;;;1.48;1.00;;;;;;;28.14;34.80;94849.81;5050901;28;20231;-75
2023/09/12 07:12:36;;;;;;;1.20;1.08;;;;;;;27.97;35.51;94844.66;5045830;28;20235;-77
2023/09/12 07:15:06;;;;;;;2.05;1.13;;;;;;;27.64;35.48;94847.38;5052574;28;20683;-76
2023/09/12 07:17:33;;;;;;;1.30;1.20;;;;;;;27.16;36.33;94853.59;5046280;28;20254;-76
2023/09/12 07:20:00;;;;;;;0.82;0.80;;;;;;;27.35;35.60;94849.97;5049699;28;20683;-85
2023/09/12 07:22:27;;;;;;;1.10;0.77;;;;;;;27.20;36.30;94859.84;5043292;28;20212;-83
2023/09/12 07:24:54;;;;;;;1.00;0.90;;;;;;;26.42;38.57;94850.22;5052745;28;20234;-73
2023/09/12 07:27:22;;;;;;;1.38;1.27;;;;;;;26.46;37.47;94856.50;5043233;28;20203;-72
2023/09/12 07:29:49;;;;;;;2.08;1.02;;;;;;;26.48;38.15;94854.88;5039732;28;20209;-73
2023/09/12 07:32:24;;;;;;;1.23;0.75;;;;;;;26.83;37.44;94853.41;5052697;28;20203;-74
2023/09/12 07:34:51;;;;;;;1.70;1.08;;;;;;;26.14;38.17;94857.78;5042681;28;20208;-73
2023/09/12 07:37:17;;;;;;;1.35;0.75;;;;;;;25.75;38.69;94863.19;5047789;28;20208;-73
2023/09/12 07:39:44;;;;;;;1.10;0.65;;;;;;;24.98;40.19;94868.56;5038265;28;20234;-76
2023/09/12 07:42:11;;;;;;;1.33;1.10;;;;;;;24.72;40.60;94870.81;5051631;28;20246;-75
2023/09/12 07:44:39;;;;;;;1.33;1.10;;;;;;;24.43;40.98;94858.44;5052110;28;20203;-76
2023/09/12 07:47:06;;;;;;;0.98;0.75;;;;;;;23.30;43.04;94866.34;5051534;28;20237;-74
2023/09/12 07:49:33;;;;;;;1.27;0.90;;;;;;;22.91;44.31;94865.75;5051936;28;20203;-75
2023/09/12 07:52:00;;;;;;;1.85;1.30;;;;;;;23.66;42.80;94861.41;5051911;28;20222;-77
2023/09/12 07:54:27;;;;;;;1.00;0.90;;;;;;;24.42;41.15;94851.31;5051511;28;20239;-74
2023/09/12 07:56:54;;;;;;;2.65;0.70;;;;;;;24.94;40.49;94853.94;5051681;28;20222;-76
2023/09/12 07:59:22;;;;;;;1.08;0.98;;;;;;;24.53;41.12;94854.78;5041669;28;20220;-74
2023/09/12 08:01:51;;;;;;;0.90;0.70;;;;;;;23.36;42.33;94855.66;5052947;28;20207;-75
2023/09/12 08:04:18;;;;;;;0.68;0.55;;;;;;;23.44;42.72;94859.16;5042471;28;20204;-74
2023/09/12 08:06:45;;;;;;;1.10;0.60;;;;;;;23.76;42.18;94859.78;5051219;28;20653;-74
2023/09/12 08:09:12;;;;;;;0.82;0.75;;;;;;;23.74;41.35;94857.41;5051523;28;20290;-73
2023/09/12 08:11:39;;;;;;;1.02;0.93;;;;;;;23.62;41.47;94854.34;5051351;28;20294;-74
2023/09/12 08:14:06;;;;;;;0.98;0.80;;;;;;;23.62;42.08;94855.13;5051607;28;20227;-74
2023/09/12 08:16:33;;;;;;;0.63;0.55;;;;;;;23.44;43.74;94853.63;5051573;28;20222;-75
2023/09/12 08:19:01;;;;;;;0.17;0.17;;;;;;;23.87;42.33;94854.94;5045253;28;20233;-74
2023/09/12 08:21:29;;;;;;;1.05;0.93;;;;;;;24.24;42.29;94864.53;5051474;28;20615;-74
2023/09/12 08:23:56;;;;;;;0.70;0.70;;;;;;;23.61;42.96;94863.84;5051782;28;20212;-73
2023/09/12 08:26:22;;;;;;;0.85;0.60;;;;;;;23.60;43.61;94856.72;5045831;28;20208;-72
2023/09/12 08:28:49;;;;;;;1.60;0.95;;;;;;;23.59;43.51;94855.16;5046012;28;20212;-74
2023/09/12 08:31:22;;;;;;;0.60;0.60;;;;;;;23.76;43.95;94853.47;5041115;28;20239;-75
2023/09/12 08:33:49;;;;;;;0.80;0.80;;;;;;;24.21;42.67;94851.47;5039327;28;20571;-72
2023/09/12 08:36:17;;;;;;;0.55;0.55;;;;;;;24.00;42.15;94846.94;5051109;28;20592;-74
2023/09/12 08:38:44;;;;;;;0.63;0.52;;;;;;;23.69;42.50;94848.75;5044938;28;20204;-75
2023/09/12 08:41:11;;;;;;;0.73;0.60;;;;;;;23.87;43.29;94849.41;5046177;28;20216;-74
2023/09/12 08:43:38;;;;;;;0.82;0.70;;;;;;;23.57;42.47;94841.72;5045228;28;20207;-76
2023/09/12 08:46:06;;;;;;;0.90;0.77;;;;;;;24.36;42.02;94839.91;5045514;28;20203;-76
2023/09/12 08:48:33;;;;;;;1.25;0.70;;;;;;;23.90;41.91;94842.28;5036208;28;20211;-76
2023/09/12 08:51:02;;;;;;;2.65;1.00;;;;;;;24.06;41.14;94832.22;5044265;28;20661;-75
2023/09/12 08:53:30;;;;;;;1.30;1.20;;;;;;;24.26;41.73;94834.47;5045928;28;20207;-74
2023/09/12 08:55:58;;;;;;;0.45;0.40;;;;;;;24.47;40.85;94834.25;5047609;28;20211;-75
2023/09/12 08:58:26;;;;;;;1.08;0.95;;;;;;;24.63;40.21;94837.25;5050235;28;20208;-74
2023/09/12 09:00:53;;;;;;;0.60;0.60;;;;;;;24.56;40.20;94845.66;5044949;28;20224;-74
2023/09/12 09:03:22;;;;;;;0.60;0.60;;;;;;;24.38;40.39;94839.50;5040157;28;20677;-74
2023/09/12 09:05:50;;;;;;;0.90;0.52;;;;;;;24.18;40.10;94835.72;5045963;28;20238;-74
2023/09/12 09:08:18;;;;;;;1.63;0.90;;;;;;;24.63;39.54;94833.69;5049604;28;20200;-75
2023/09/12 09:10:57;;;;;;;1.25;0.77;;;;;;;24.86;39.01;94824.72;5049011;28;20196;-74
2023/09/12 09:13:25;;;;;;;1.25;0.70;;;;;;;25.14;38.42;94825.19;5040585;28;20247;-76
2023/09/12 09:16:11;;;;;;;0.95;0.85;;;;;;;25.58;39.17;94822.56;5041962;28;20262;-75
2023/09/12 09:18:52;;;;;;;1.05;0.63;;;;;;;25.96;37.84;94818.44;5047964;28;20241;-75
2023/09/12 09:21:20;;;;;;;0.73;0.73;;;;;;;26.06;37.17;94816.69;5044590;28;20299;-75
2023/09/12 09:23:47;;;;;;;1.00;0.90;;;;;;;26.01;37.36;94819.94;5039894;28;20949;-75
2023/09/12 09:26:15;;;;;;;1.10;0.70;;;;;;;26.10;36.96;94817.44;5040951;28;20287;-75
2023/09/12 09:28:42;;;;;;;0.90;0.73;;;;;;;26.05;36.87;94810.34;5036598;28;20239;-74
2023/09/12 09:31:11;;;;;;;0.73;0.63;;;;;;;26.39;36.23;94801.81;5044183;28;20227;-76
2023/09/12 09:33:40;;;;;;;0.65;0.60;;;;;;;26.45;35.58;94811.25;5039802;28;20208;-76
2023/09/12 09:36:08;;;;;;;0.95;0.60;;;;;;;26.38;36.16;94805.81;5037731;28;20210;-75
2023/09/12 09:38:36;;;;;;;1.48;1.38;;;;;;;25.97;36.32;94806.09;5038228;28;20199;-75
2023/09/12 09:41:06;;;;;;;0.90;0.70;;;;;;;26.01;36.33;94804.06;5041645;28;20284;-76
2023/09/12 09:43:35;;;;;;;1.02;0.80;;;;;;;26.09;36.49;94799.19;5044186;28;20205;-75
2023/09/12 09:46:02;;;;;;;0.40;0.40;;;;;;;26.46;36.16;94795.38;5040775;28;20204;-76
2023/09/12 09:48:31;;;;;;;0.55;0.55;;;;;;;26.57;36.05;94795.94;5039473;28;20326;-76
2023/09/12 09:51:02;;;;;;;3.55;1.00;;;;;;;26.82;35.75;94796.22;5044640;28;20203;-75
2023/09/12 09:53:29;;;;;;;1.30;1.00;;;;;;;26.38;35.52;94791.13;5042958;28;20226;-74
2023/09/12 09:56:10;;;;;;;0.88;0.77;;;;;;;26.79;35.88;94785.97;5044532;28;20237;-75
2023/09/12 09:58:47;;;;;;;1.23;1.05;;;;;;;26.80;35.33;94776.41;5049527;28;20286;-75
2023/09/12 10:01:18;;;;;;;0.60;0.60;;;;;;;26.81;35.23;94791.09;5046880;28;20215;-74
2023/09/12 10:03:48;;;;;;;0.52;0.52;;;;;;;26.88;34.95;94775.06;5047393;28;20241;-77
2023/09/12 10:06:17;;;;;;;1.13;0.70;;;;;;;26.83;36.21;94781.13;5049131;28;20254;-76
2023/09/12 10:08:46;;;;;;;1.05;0.90;;;;;;;27.00;34.97;94778.44;5049280;28;20325;-76
2023/09/12 10:11:16;;;;;;;0.60;0.60;;;;;;;26.69;35.79;94781.41;5049716;28;20549;-78
2023/09/12 10:13:50;;;;;;;0.90;0.70;;;;;;;26.84;35.64;94776.34;5048111;28;20317;-75
2023/09/12 10:16:18;;;;;;;1.23;0.50;;;;;;;26.50;35.46;94779.41;5045789;28;20206;-76
2023/09/12 10:18:56;;;;;;;0.43;0.43;;;;;;;26.66;35.29;94764.78;5051295;28;20200;-76
2023/09/12 10:21:30;;;;;;;1.33;0.82;;;;;;;26.45;35.33;94769.56;5048239;28;20615;-75
2023/09/12 10:23:57;;;;;;;1.63;0.70;;;;;;;26.69;36.40;94763.94;5043913;28;20254;-77
2023/09/12 10:26:25;;;;;;;0.80;0.80;;;;;;;27.08;35.20;94763.16;5049079;28;20237;-74
2023/09/12 10:28:58;;;;;;;0.90;0.80;;;;;;;27.22;35.55;94758.06;5049605;28;20215;-78
2023/09/12 10:31:26;;;;;;;0.90;0.82;;;;;;;27.44;35.29;94752.00;5049380;28;20212;-77
2023/09/12 10:33:53;;;;;;;1.05;0.68;;;;;;;27.52;34.07;94751.41;5046209;28;20707;-78
2023/09/12 10:36:21;;;;;;;0.98;0.60;;;;;;;27.67;34.43;94746.31;5049692;28;20401;-77
2023/09/12 10:38:50;;;;;;;0.70;0.52;;;;;;;27.59;32.96;94745.72;5049028;28;20207;-79
2023/09/12 10:41:17;;;;;;;0.60;0.60;;;;;;;27.21;33.51;94750.13;5049174;28;20250;-77
2023/09/12 10:43:49;;;;;;;0.70;0.70;;;;;;;27.29;33.38;94740.44;5048816;28;20210;-79
2023/09/12 10:46:18;;;;;;;1.02;0.65;;;;;;;26.82;33.55;94748.97;5048843;28;20313;-79
2023/09/12 10:48:45;;;;;;;0.60;0.60;;;;;;;26.24;34.02;94749.72;5040393;28;20290;-77
2023/09/12 10:51:13;;;;;;;0.93;0.88;;;;;;;26.10;35.26;94737.66;5040669;28;20270;-76
2023/09/12 10:53:48;;;;;;;0.95;0.60;;;;;;;25.96;34.90;94737.94;5046195;28;20295;-78
2023/09/12 10:56:18;;;;;;;0.82;0.70;;;;;;;26.21;34.39;94748.59;5043842;28;20678;-77
2023/09/12 10:59:10;;;;;;;0.65;0.50;;;;;;;25.85;34.26;94740.88;5046876;28;20239;-76
2023/09/12 11:01:39;;;;;;;1.27;1.13;;;;;;;26.06;34.94;94738.94;5040477;28;20285;-75
2023/09/12 11:04:33;;;;;;;0.77;0.77;;;;;;;26.30;34.04;94731.38;5047138;28;20231;-77
2023/09/12 11:07:00;;;;;;;0.45;0.45;;;;;;;26.40;33.85;94724.81;5041142;28;20203;-74
2023/09/12 11:09:28;;;;;;;0.82;0.82;;;;;;;26.92;34.07;94722.91;5048819;28;20618;-76
2023/09/12 11:11:58;;;;;;;2.38;1.48;;;;;;;27.36;33.49;94712.44;5049160;28;20627;-77
2023/09/12 11:14:26;;;;;;;0.73;0.57;;;;;;;27.49;33.91;94715.31;5042505;28;20323;-76
2023/09/12 11:17:29;;;;;;;1.00;0.82;;;;;;;27.63;33.46;94717.75;5046920;28;20295;-74
2023/09/12 11:20:09;;;;;;;0.85;0.75;;;;;;;27.48;32.57;94720.09;5046269;28;20623;-75
2023/09/12 11:22:39;;;;;;;0.68;0.52;;;;;;;27.13;32.81;94720.94;5044451;28;20451;-75
2023/09/12 11:25:06;;;;;;;0.73;0.70;;;;;;;27.32;33.22;94711.75;5046148;28;20203;-74
2023/09/12 11:27:44;;;;;;;0.60;0.60;;;;;;;27.03;32.51;94716.41;5048377;28;20514;-77
2023/09/12 11:30:12;;;;;;;1.00;0.90;;;;;;;27.15;33.04;94712.94;5045918;28;20199;-76
2023/09/12 11:32:39;;;;;;;0.80;0.50;;;;;;;26.98;33.92;94719.69;5052219;28;20226;-76
2023/09/12 11:35:09;;;;;;;0.38;0.38;;;;;;;27.15;32.45;94701.81;5051807;28;20621;-77
2023/09/12 11:37:36;;;;;;;1.67;0.60;;;;;;;27.00;33.35;94708.91;5039244;28;20210;-77
2023/09/12 11:40:16;;;;;;;0.70;0.60;;;;;;;27.36;32.92;94701.28;5052811;28;20657;-78